Time;durP1;ratioP1;P1;durP2;ratioP2;P2;SDS_P1;SDS_P2;PMS_P1;PMS_P2;Temp;Humidity;BMP_temperature;BMP_pressure;BME280_temperature;BME280_humidity;BME280_pressure;Samples;Min_cycle;Max_cycle;Signal;HPM_P1;HPM_P2
2023/01/07 00:01:39;;;;;;;2.53;1.90;;;;;;;9.32;100.00;101449.28;5025417;28;20061;-79
2023/01/07 00:04:07;;;;;;;3.17;2.10;;;;;;;9.35;100.00;101452.41;5028654;28;20050;-79
2023/01/07 00:06:36;;;;;;;6.60;1.90;;;;;;;9.24;100.00;101446.53;5030167;28;20044;-79
2023/01/07 00:09:04;;;;;;;4.72;1.95;;;;;;;9.21;100.00;101444.19;5047140;28;20046;-79
2023/01/07 00:11:32;;;;;;;3.55;1.70;;;;;;;9.25;100.00;101443.81;5041462;28;20550;-79
2023/01/07 00:13:59;;;;;;;2.45;1.63;;;;;;;9.19;100.00;101441.72;5027669;28;20037;-79
2023/01/07 00:16:27;;;;;;;3.13;1.98;;;;;;;9.25;100.00;101438.66;5027937;28;20518;-79
2023/01/07 00:18:55;;;;;;;3.28;1.90;;;;;;;9.10;100.00;101448.53;5028927;28;20119;-79
2023/01/07 00:21:22;;;;;;;3.40;1.65;;;;;;;9.01;100.00;101444.13;5027446;28;20072;-79
2023/01/07 00:23:48;;;;;;;5.00;1.80;;;;;;;8.95;100.00;101452.41;5031437;28;20052;-79
2023/01/07 00:26:19;;;;;;;3.20;2.00;;;;;;;8.92;100.00;101447.50;5026925;28;20458;-80
2023/01/07 00:28:47;;;;;;;1.83;1.40;;;;;;;8.99;100.00;101445.22;5030393;28;20426;-80
2023/01/07 00:31:14;;;;;;;2.53;1.55;;;;;;;8.98;100.00;101433.22;5005806;28;20446;-79
2023/01/07 00:33:48;;;;;;;5.13;2.13;;;;;;;8.96;100.00;101430.75;5045434;28;20060;-80
2023/01/07 00:36:13;;;;;;;1.80;1.40;;;;;;;8.96;100.00;101438.53;5022987;28;20036;-79
2023/01/07 00:38:39;;;;;;;5.00;1.73;;;;;;;8.90;100.00;101432.09;5026638;28;20026;-79
2023/01/07 00:41:05;;;;;;;3.72;1.58;;;;;;;8.94;100.00;101432.66;5028061;28;20045;-79
2023/01/07 00:43:31;;;;;;;3.25;1.65;;;;;;;8.90;100.00;101429.50;5022103;28;20029;-79
2023/01/07 00:45:57;;;;;;;2.42;1.50;;;;;;;8.86;100.00;101420.38;5012383;28;20064;-78
2023/01/07 00:48:22;;;;;;;3.05;1.50;;;;;;;8.89;100.00;101427.88;5045203;28;20088;-80
2023/01/07 00:50:50;;;;;;;4.22;2.05;;;;;;;8.80;100.00;101422.66;5027633;28;20044;-79
2023/01/07 00:53:16;;;;;;;3.58;2.00;;;;;;;8.76;100.00;101415.16;5045005;28;20037;-79
2023/01/07 00:55:42;;;;;;;2.70;1.80;;;;;;;8.67;100.00;101420.31;5044309;28;20038;-80
2023/01/07 00:58:13;;;;;;;2.45;1.92;;;;;;;8.65;100.00;101417.84;5028291;28;20029;-79
2023/01/07 01:00:39;;;;;;;3.30;1.83;;;;;;;8.57;100.00;101413.31;5026930;28;20033;-79
2023/01/07 01:03:05;;;;;;;5.20;1.83;;;;;;;8.57;100.00;101417.66;5029928;28;20624;-79
2023/01/07 01:05:30;;;;;;;2.05;1.50;;;;;;;8.53;100.00;101417.09;5029952;28;20045;-79
2023/01/07 01:07:56;;;;;;;2.55;1.55;;;;;;;8.52;100.00;101415.44;5027814;28;20030;-79
2023/01/07 01:10:22;;;;;;;3.45;2.00;;;;;;;8.48;100.00;101414.06;5031186;28;20044;-79
2023/01/07 01:12:48;;;;;;;3.80;1.45;;;;;;;8.52;100.00;101417.22;5027100;28;20520;-79
2023/01/07 01:15:15;;;;;;;2.63;1.70;;;;;;;8.53;100.00;101411.94;5042153;28;20038;-79
2023/01/07 01:17:41;;;;;;;4.05;1.88;;;;;;;8.56;100.00;101413.44;5046628;28;20433;-79
2023/01/07 01:20:10;;;;;;;4.70;1.80;;;;;;;8.62;100.00;101401.75;5027031;28;20050;-79
2023/01/07 01:22:36;;;;;;;2.78;1.90;;;;;;;8.55;100.00;101399.69;5032770;28;20033;-79
2023/01/07 01:25:02;;;;;;;3.88;2.15;;;;;;;8.51;100.00;101407.81;5010418;28;20040;-79
2023/01/07 01:27:31;;;;;;;5.50;2.20;;;;;;;8.64;100.00;101399.84;5029009;28;20036;-79
2023/01/07 01:29:57;;;;;;;3.05;1.80;;;;;;;8.58;100.00;101398.59;5044888;28;20690;-78
2023/01/07 01:32:23;;;;;;;2.05;1.42;;;;;;;8.63;100.00;101386.13;5025733;28;20049;-79
2023/01/07 01:34:49;;;;;;;5.03;1.90;;;;;;;8.73;100.00;101383.56;5020573;28;20041;-79
2023/01/07 01:37:14;;;;;;;1.83;1.30;;;;;;;8.70;100.00;101389.84;5017001;28;20490;-79
2023/01/07 01:39:40;;;;;;;2.22;1.52;;;;;;;8.74;100.00;101385.22;5012951;28;20048;-79
2023/01/07 01:42:26;;;;;;;2.58;1.70;;;;;;;8.83;100.00;101389.59;5035415;28;20033;-79
2023/01/07 01:44:58;;;;;;;5.97;1.83;;;;;;;8.86;100.00;101385.94;5016402;28;20048;-79
2023/01/07 01:47:45;;;;;;;5.10;1.58;;;;;;;8.88;100.00;101384.84;5004324;28;20029;-79
2023/01/07 01:50:26;;;;;;;3.30;1.50;;;;;;;8.85;100.00;101387.69;5001104;28;20045;-79
2023/01/07 01:52:55;;;;;;;2.58;1.25;;;;;;;8.95;100.00;101385.16;5034784;28;20040;-79
2023/01/07 01:55:29;;;;;;;3.25;1.65;;;;;;;9.01;100.00;101379.47;5015914;28;20115;-79
2023/01/07 01:58:02;;;;;;;2.90;1.40;;;;;;;9.00;100.00;101380.41;5033084;28;20044;-79
2023/01/07 02:00:28;;;;;;;2.70;1.60;;;;;;;9.09;100.00;101382.19;5017021;28;20037;-79
2023/01/07 02:02:57;;;;;;;3.78;1.40;;;;;;;9.22;100.00;101379.38;5035704;28;20032;-80
2023/01/07 02:05:27;;;;;;;2.22;1.48;;;;;;;9.15;100.00;101375.69;5015787;28;20069;-79
2023/01/07 02:07:53;;;;;;;2.65;1.38;;;;;;;9.11;100.00;101372.53;5009188;28;20033;-79
2023/01/07 02:10:21;;;;;;;1.90;1.33;;;;;;;9.11;100.00;101369.94;5034560;28;20034;-79
2023/01/07 02:13:09;;;;;;;2.08;1.30;;;;;;;9.06;100.00;101372.13;5009831;28;20041;-79
2023/01/07 02:15:41;;;;;;;2.58;1.50;;;;;;;9.27;100.00;101364.28;5041366;28;20312;-79
2023/01/07 02:18:30;;;;;;;1.95;1.20;;;;;;;9.21;100.00;101364.81;5044164;28;20064;-80
2023/01/07 02:21:04;;;;;;;6.78;1.50;;;;;;;9.28;100.00;101365.09;5018347;28;20080;-79
2023/01/07 02:23:42;;;;;;;3.40;1.10;;;;;;;9.20;100.00;101355.41;5043242;28;20037;-79
2023/01/07 02:26:45;;;;;;;1.70;1.23;;;;;;;9.19;100.00;101356.34;5026253;28;20038;-79
2023/01/07 02:29:43;;;;;;;2.08;1.20;;;;;;;9.25;100.00;101360.16;5040185;28;20056;-79
2023/01/07 02:32:47;;;;;;;3.92;1.13;;;;;;;9.24;100.00;101359.34;5026543;28;20049;-79
2023/01/07 02:35:50;;;;;;;1.58;1.10;;;;;;;9.20;100.00;101362.34;4989216;28;20069;-80
2023/01/07 02:38:54;;;;;;;1.58;1.00;;;;;;;9.24;100.00;101353.38;5027496;28;20068;-79
2023/01/07 02:41:43;;;;;;;1.88;1.05;;;;;;;9.27;100.00;101350.53;5044539;28;20056;-79
2023/01/07 02:44:40;;;;;;;4.68;1.00;;;;;;;9.33;100.00;101339.63;5029773;28;20536;-79
2023/01/07 02:47:17;;;;;;;1.08;0.90;;;;;;;9.19;100.00;101351.16;5030533;28;20080;-80
2023/01/07 02:49:46;;;;;;;1.60;1.00;;;;;;;9.27;100.00;101351.34;5041228;28;20042;-79
2023/01/07 02:52:19;;;;;;;3.40;1.27;;;;;;;9.28;100.00;101345.19;5027091;28;20045;-80
2023/01/07 02:54:52;;;;;;;1.27;0.98;;;;;;;9.32;100.00;101343.16;5030207;28;20037;-79
2023/01/07 02:57:36;;;;;;;1.75;1.05;;;;;;;9.29;100.00;101339.09;5012918;28;20029;-79
2023/01/07 03:00:20;;;;;;;1.27;1.02;;;;;;;9.25;100.00;101336.88;5040097;28;20045;-79
2023/01/07 03:02:52;;;;;;;3.47;0.95;;;;;;;9.27;100.00;101335.81;5044405;28;20502;-80
2023/01/07 03:05:38;;;;;;;1.63;0.95;;;;;;;9.18;100.00;101333.22;5042976;28;20033;-79
2023/01/07 03:08:10;;;;;;;1.40;0.82;;;;;;;9.15;100.00;101344.63;5045569;28;20030;-79
2023/01/07 03:10:38;;;;;;;1.50;0.85;;;;;;;9.23;100.00;101325.84;5048404;28;20069;-79
2023/01/07 03:13:10;;;;;;;2.42;1.25;;;;;;;9.19;100.00;101333.06;5033848;28;20037;-79
2023/01/07 03:15:43;;;;;;;2.60;1.05;;;;;;;9.07;100.00;101328.97;5012896;28;20095;-79
2023/01/07 03:18:19;;;;;;;1.88;0.85;;;;;;;9.13;100.00;101318.88;5028396;28;20417;-79
2023/01/07 03:20:49;;;;;;;0.90;0.70;;;;;;;9.04;100.00;101317.13;5029746;28;20034;-79
2023/01/07 03:23:19;;;;;;;3.63;0.90;;;;;;;9.09;100.00;101314.94;5039429;28;20034;-79
2023/01/07 03:25:47;;;;;;;2.17;0.90;;;;;;;9.18;100.00;101307.34;5030216;28;20061;-79
2023/01/07 03:28:19;;;;;;;3.55;0.90;;;;;;;9.01;100.00;101307.03;5042105;28;20097;-79
2023/01/07 03:30:48;;;;;;;4.85;1.00;;;;;;;9.00;100.00;101313.13;5026008;28;20034;-79
2023/01/07 03:33:56;;;;;;;4.75;0.73;;;;;;;8.98;100.00;101315.03;5027179;28;20097;-79
2023/01/07 03:36:28;;;;;;;2.53;1.02;;;;;;;8.89;100.00;101311.50;5004005;28;20174;-79
2023/01/07 03:38:55;;;;;;;1.17;0.60;;;;;;;8.89;100.00;101311.50;5026016;28;20032;-78
2023/01/07 03:44:06;;;;;;;0.75;0.70;;;;;;;8.77;100.00;101315.94;5047550;28;20026;-79
2023/01/07 03:46:33;;;;;;;1.92;0.77;;;;;;;8.75;100.00;101314.44;5043970;28;20083;-79
2023/01/07 03:48:59;;;;;;;1.20;0.80;;;;;;;8.80;100.00;101304.53;5024446;28;20037;-80
2023/01/07 03:51:25;;;;;;;2.38;0.90;;;;;;;8.72;100.00;101310.38;5034013;28;20386;-79
2023/01/07 03:53:51;;;;;;;3.22;1.10;;;;;;;8.74;100.00;101299.91;5017668;28;20036;-80
2023/01/07 03:56:16;;;;;;;2.35;0.80;;;;;;;8.74;100.00;101303.28;5028561;28;20037;-79
2023/01/07 03:58:42;;;;;;;1.10;0.70;;;;;;;8.60;100.00;101301.06;5044778;28;20025;-79
2023/01/07 04:01:08;;;;;;;1.30;0.80;;;;;;;8.66;100.00;101294.53;5025792;28;20029;-79
2023/01/07 04:03:33;;;;;;;1.60;1.00;;;;;;;8.59;100.00;101291.69;5025707;28;20017;-79
2023/01/07 04:05:59;;;;;;;1.05;0.82;;;;;;;8.56;100.00;101295.34;5014739;28;20542;-79
2023/01/07 04:08:24;;;;;;;1.13;0.70;;;;;;;8.49;100.00;101288.22;5031356;28;20033;-79
2023/01/07 04:10:50;;;;;;;0.88;0.60;;;;;;;8.50;100.00;101293.28;5012316;28;20383;-79
2023/01/07 04:13:16;;;;;;;2.22;0.90;;;;;;;8.57;100.00;101289.22;5027365;28;20033;-78
2023/01/07 04:15:44;;;;;;;1.65;0.70;;;;;;;8.61;100.00;101286.34;5025447;28;20068;-79
2023/01/07 04:18:10;;;;;;;3.63;0.90;;;;;;;8.54;100.00;101281.72;5017413;28;20029;-79
2023/01/07 04:20:36;;;;;;;1.33;0.93;;;;;;;8.47;100.00;101275.44;5028555;28;20059;-79
2023/01/07 04:23:01;;;;;;;2.78;0.90;;;;;;;8.45;100.00;101273.94;5028754;28;20478;-79
2023/01/07 04:25:30;;;;;;;1.25;1.02;;;;;;;8.48;100.00;101273.69;5028883;28;21666;-79
2023/01/07 04:27:56;;;;;;;2.05;1.10;;;;;;;8.44;100.00;101273.13;5017822;28;20037;-79
2023/01/07 04:30:22;;;;;;;2.13;0.90;;;;;;;8.35;100.00;101258.38;5026443;28;20076;-79
2023/01/07 04:32:48;;;;;;;4.55;0.90;;;;;;;8.22;100.00;101263.75;5015530;28;20715;-79
2023/01/07 04:35:14;;;;;;;4.00;0.90;;;;;;;8.19;100.00;101262.25;5029557;28;20041;-79
2023/01/07 04:37:39;;;;;;;1.27;0.75;;;;;;;8.18;100.00;101258.03;5030736;28;20033;-80
2023/01/07 04:40:05;;;;;;;1.35;0.85;;;;;;;8.27;100.00;101253.84;5008466;28;20037;-79
2023/01/07 04:42:34;;;;;;;3.03;1.40;;;;;;;8.18;100.00;101262.38;5029015;28;20036;-79
2023/01/07 04:44:59;;;;;;;3.88;0.80;;;;;;;8.13;100.00;101249.81;5022331;28;20038;-79
2023/01/07 04:47:26;;;;;;;1.70;0.75;;;;;;;8.12;100.00;101244.81;5028089;28;20126;-79
2023/01/07 04:49:52;;;;;;;5.50;1.48;;;;;;;8.13;100.00;101252.41;5020903;28;20604;-79
2023/01/07 04:52:17;;;;;;;5.43;0.90;;;;;;;8.11;100.00;101246.56;5027607;28;20029;-79
2023/01/07 04:54:43;;;;;;;3.63;1.58;;;;;;;7.98;100.00;101239.00;5029427;28;20046;-78
2023/01/07 04:57:09;;;;;;;6.70;1.25;;;;;;;7.94;100.00;101235.06;5026881;28;20033;-79
2023/01/07 04:59:34;;;;;;;3.35;0.70;;;;;;;7.87;100.00;101244.25;5014977;28;20037;-79
2023/01/07 05:02:01;;;;;;;5.38;1.08;;;;;;;7.79;100.00;101236.34;5044180;28;20120;-79
2023/01/07 05:04:26;;;;;;;3.63;1.50;;;;;;;7.71;100.00;101234.38;5022312;28;20033;-80
2023/01/07 05:06:53;;;;;;;3.60;1.00;;;;;;;7.63;100.00;101230.78;5011781;28;20398;-80
2023/01/07 05:09:20;;;;;;;2.40;0.85;;;;;;;7.64;100.00;101224.69;5023859;28;20033;-80
2023/01/07 05:11:46;;;;;;;2.05;1.20;;;;;;;7.57;100.00;101229.53;5012449;28;20029;-80
2023/01/07 05:14:12;;;;;;;3.08;1.00;;;;;;;7.49;100.00;101219.03;5006687;28;20022;-79
2023/01/07 05:16:38;;;;;;;3.25;1.58;;;;;;;7.43;100.00;101219.53;5022794;28;20081;-79
2023/01/07 05:19:09;;;;;;;5.57;1.50;;;;;;;7.36;100.00;101209.69;5040036;28;20055;-79
2023/01/07 05:21:39;;;;;;;2.50;1.50;;;;;;;7.34;100.00;101208.19;5006822;28;20030;-79
2023/01/07 05:24:05;;;;;;;4.90;1.73;;;;;;;7.33;100.00;101207.38;5028226;28;20115;-79
2023/01/07 05:26:31;;;;;;;2.78;1.40;;;;;;;7.32;100.00;101202.34;5031095;28;20116;-79
2023/01/07 05:28:56;;;;;;;2.88;1.50;;;;;;;7.30;100.00;101202.47;5018966;28;20026;-79
2023/01/07 05:31:23;;;;;;;5.65;1.08;;;;;;;7.27;100.00;101204.47;5030345;28;20801;-79
2023/01/07 05:33:48;;;;;;;6.93;1.25;;;;;;;7.25;100.00;101196.03;5012028;28;20155;-79
2023/01/07 05:36:14;;;;;;;1.98;0.98;;;;;;;7.20;100.00;101196.44;5030656;28;20034;-79
2023/01/07 05:38:39;;;;;;;3.72;0.90;;;;;;;7.15;100.00;101201.13;5025943;28;20040;-79
2023/01/07 05:41:05;;;;;;;2.53;1.20;;;;;;;7.09;100.00;101194.69;5025796;28;20045;-80
2023/01/07 05:43:31;;;;;;;1.95;0.95;;;;;;;7.06;100.00;101189.78;5030618;28;20029;-79
2023/01/07 05:45:57;;;;;;;2.33;0.90;;;;;;;7.09;100.00;101186.16;5027941;28;20772;-80
2023/01/07 05:48:23;;;;;;;2.15;1.20;;;;;;;7.07;100.00;101186.28;5028820;28;20048;-79
2023/01/07 05:50:49;;;;;;;2.67;1.13;;;;;;;7.07;100.00;101191.44;5028854;28;20448;-79
2023/01/07 05:53:14;;;;;;;1.80;1.13;;;;;;;7.13;100.00;101192.69;5023650;28;20059;-79
2023/01/07 05:55:40;;;;;;;1.70;1.10;;;;;;;7.09;100.00;101194.69;5032968;28;20033;-79
2023/01/07 05:58:06;;;;;;;2.55;1.30;;;;;;;7.14;100.00;101187.41;5028269;28;20045;-80
2023/01/07 06:00:33;;;;;;;1.90;1.38;;;;;;;7.18;100.00;101193.97;5025120;28;20034;-79
2023/01/07 06:02:58;;;;;;;3.42;1.60;;;;;;;7.22;100.00;101192.78;5007096;28;20107;-79
2023/01/07 06:05:24;;;;;;;6.68;1.20;;;;;;;7.31;100.00;101190.38;5026626;28;20049;-79
2023/01/07 06:07:50;;;;;;;2.05;1.30;;;;;;;7.34;100.00;101183.22;5029279;28;20037;-79
2023/01/07 06:10:15;;;;;;;2.38;1.73;;;;;;;7.30;100.00;101175.84;5024243;28;20067;-79
2023/01/07 06:12:41;;;;;;;3.47;1.10;;;;;;;7.43;100.00;101180.84;5010450;28;20037;-78
2023/01/07 06:15:07;;;;;;;8.48;1.45;;;;;;;7.43;100.00;101176.47;5024910;28;20079;-79
2023/01/07 06:17:32;;;;;;;4.03;1.10;;;;;;;7.52;100.00;101182.66;5014675;28;20037;-79
2023/01/07 06:19:58;;;;;;;2.35;1.33;;;;;;;7.48;100.00;101181.25;5012762;28;20401;-80
2023/01/07 06:22:24;;;;;;;3.72;1.17;;;;;;;7.63;100.00;101180.00;5028922;28;20121;-79
2023/01/07 06:24:49;;;;;;;2.20;1.40;;;;;;;7.53;100.00;101179.94;5025215;28;20610;-80
2023/01/07 06:27:15;;;;;;;1.83;1.27;;;;;;;7.43;100.00;101170.50;5043003;28;20067;-79
2023/01/07 06:29:40;;;;;;;3.67;1.20;;;;;;;7.49;100.00;101167.41;5025329;28;20041;-79
2023/01/07 06:32:06;;;;;;;2.22;1.33;;;;;;;7.45;100.00;101166.84;5011404;28;20042;-79
2023/01/07 06:34:31;;;;;;;3.90;1.25;;;;;;;7.43;100.00;101163.59;5017641;28;20677;-79
2023/01/07 06:36:57;;;;;;;2.80;1.08;;;;;;;7.58;100.00;101166.66;5045905;28;20026;-79
2023/01/07 06:39:22;;;;;;;6.28;1.10;;;;;;;7.65;100.00;101157.47;5032683;28;20375;-79
2023/01/07 06:41:48;;;;;;;4.47;1.40;;;;;;;7.76;100.00;101153.97;5031930;28;20068;-79
2023/01/07 06:44:13;;;;;;;3.42;1.48;;;;;;;7.67;100.00;101163.31;5028963;28;20037;-79
2023/01/07 06:46:39;;;;;;;6.15;1.20;;;;;;;7.67;100.00;101165.09;5032072;28;20122;-78
2023/01/07 06:49:04;;;;;;;7.20;1.48;;;;;;;7.75;100.00;101152.34;5036031;28;20029;-79
2023/01/07 06:51:30;;;;;;;3.28;1.20;;;;;;;7.79;100.00;101154.53;5036362;28;20045;-79
2023/01/07 06:53:55;;;;;;;3.63;1.13;;;;;;;7.86;100.00;101147.09;5036220;28;20041;-78
2023/01/07 06:56:21;;;;;;;4.25;1.40;;;;;;;7.91;100.00;101147.53;5033027;28;20037;-79
2023/01/07 06:58:46;;;;;;;4.80;1.27;;;;;;;7.92;100.00;101148.34;5017363;28;20034;-80
2023/01/07 07:01:12;;;;;;;7.32;1.45;;;;;;;7.97;100.00;101143.63;5031984;28;20033;-79
2023/01/07 07:03:37;;;;;;;6.25;2.38;;;;;;;8.02;100.00;101138.84;5011869;28;20423;-79
2023/01/07 07:06:03;;;;;;;3.75;1.23;;;;;;;8.15;100.00;101143.78;5042726;28;20049;-79
2023/01/07 07:08:29;;;;;;;4.55;1.35;;;;;;;8.13;100.00;101137.94;5016239;28;20560;-79
2023/01/07 07:10:55;;;;;;;3.83;1.17;;;;;;;8.18;100.00;101126.28;5014927;28;20041;-79
2023/01/07 07:13:20;;;;;;;4.35;1.70;;;;;;;8.24;100.00;101117.16;5045011;28;20034;-79
2023/01/07 07:15:46;;;;;;;2.33;1.45;;;;;;;8.21;100.00;101127.75;5043114;28;20041;-79
2023/01/07 07:18:11;;;;;;;4.47;1.52;;;;;;;8.28;100.00;101118.53;5032473;28;20025;-79
2023/01/07 07:20:37;;;;;;;6.18;1.58;;;;;;;8.38;100.00;101123.72;5032817;28;20033;-79
2023/01/07 07:23:02;;;;;;;4.40;1.40;;;;;;;8.35;100.00;101114.47;5031822;28;20034;-79
2023/01/07 07:25:28;;;;;;;4.88;1.77;;;;;;;8.35;100.00;101113.66;5036394;28;20049;-79
2023/01/07 07:27:54;;;;;;;6.93;1.75;;;;;;;8.38;100.00;101109.03;5034047;28;20067;-79
2023/01/07 07:30:19;;;;;;;5.68;1.60;;;;;;;8.32;100.00;101119.91;5031024;28;20040;-80
2023/01/07 07:32:45;;;;;;;7.22;1.73;;;;;;;8.25;100.00;101117.97;5030418;28;20046;-79
2023/01/07 07:35:11;;;;;;;5.25;1.45;;;;;;;8.24;100.00;101117.16;5028808;28;20048;-80
2023/01/07 07:37:37;;;;;;;5.15;1.80;;;;;;;8.15;100.00;101117.97;5019610;28;20065;-80
2023/01/07 07:40:04;;;;;;;4.55;1.80;;;;;;;8.21;100.00;101117.44;5034059;28;20053;-79
2023/01/07 07:42:29;;;;;;;10.00;1.25;;;;;;;8.30;100.00;101106.28;5038321;28;20080;-80
2023/01/07 07:44:55;;;;;;;4.53;1.70;;;;;;;8.33;100.00;101111.22;5032213;28;20041;-80
2023/01/07 07:47:20;;;;;;;5.13;1.42;;;;;;;8.26;100.00;101102.34;5010645;28;20056;-79
2023/01/07 07:49:46;;;;;;;4.07;1.70;;;;;;;8.33;100.00;101097.47;5017018;28;20033;-80
2023/01/07 07:52:11;;;;;;;3.25;1.50;;;;;;;8.42;100.00;101099.28;5018441;28;20063;-79
2023/01/07 07:54:36;;;;;;;3.65;1.63;;;;;;;8.44;99.72;101091.38;5038832;28;20379;-79
2023/01/07 07:57:02;;;;;;;5.55;1.38;;;;;;;8.55;98.26;101093.84;5037523;28;20037;-80
2023/01/07 07:59:28;;;;;;;5.50;1.10;;;;;;;8.62;97.69;101099.28;5049288;28;20308;-79
2023/01/07 08:01:54;;;;;;;1.90;1.05;;;;;;;8.64;96.95;101089.63;5027024;28;20037;-79
2023/01/07 08:04:19;;;;;;;6.95;0.98;;;;;;;8.68;95.94;101084.06;5042564;28;20037;-79
2023/01/07 08:06:45;;;;;;;1.33;0.80;;;;;;;8.80;95.07;101081.31;5045538;28;20041;-79
2023/01/07 08:09:10;;;;;;;1.52;1.00;;;;;;;8.79;93.95;101077.13;5030036;28;20160;-79
2023/01/07 08:11:36;;;;;;;6.07;0.98;;;;;;;8.71;94.61;101081.19;5027123;28;20034;-79
2023/01/07 08:14:01;;;;;;;2.38;0.95;;;;;;;8.66;94.81;101080.78;5026559;28;20052;-79
2023/01/07 08:16:27;;;;;;;4.07;1.13;;;;;;;8.58;95.59;101086.63;5023133;28;20451;-78
2023/01/07 08:18:52;;;;;;;4.25;1.00;;;;;;;8.63;95.20;101070.72;5026055;28;20037;-79
2023/01/07 08:21:17;;;;;;;4.68;1.00;;;;;;;8.74;94.00;101075.75;5025887;28;20506;-79
2023/01/07 08:23:43;;;;;;;7.75;1.17;;;;;;;8.77;93.35;101069.50;5024390;28;20038;-79
2023/01/07 08:26:08;;;;;;;3.97;1.10;;;;;;;8.70;93.78;101084.75;5025160;28;20044;-79
2023/01/07 08:28:34;;;;;;;3.42;1.08;;;;;;;8.68;93.59;101076.31;5029311;28;20029;-79
2023/01/07 08:31:04;;;;;;;2.10;0.98;;;;;;;8.67;93.79;101066.09;5010301;28;20489;-78
2023/01/07 08:33:32;;;;;;;3.20;1.63;;;;;;;8.73;93.78;101068.94;5019738;28;20036;-79
2023/01/07 08:35:58;;;;;;;4.65;1.20;;;;;;;8.75;92.71;101069.63;5020056;28;20037;-79
2023/01/07 08:38:25;;;;;;;3.15;0.82;;;;;;;8.89;91.79;101067.56;5041718;28;20045;-79
2023/01/07 08:40:50;;;;;;;6.43;1.02;;;;;;;8.89;91.29;101067.56;5028392;28;20037;-79
2023/01/07 08:43:16;;;;;;;2.65;0.80;;;;;;;8.99;91.19;101057.22;5026617;28;20107;-79
2023/01/07 08:45:47;;;;;;;4.32;1.05;;;;;;;8.91;90.89;101050.13;5044361;28;20103;-79
2023/01/07 08:48:13;;;;;;;3.00;1.17;;;;;;;9.01;91.54;101052.72;5041424;28;20036;-79
2023/01/07 08:50:38;;;;;;;2.85;0.93;;;;;;;8.94;91.76;101047.28;5028328;28;20038;-79
2023/01/07 08:53:03;;;;;;;3.25;1.02;;;;;;;8.94;91.68;101048.09;5010328;28;20026;-79
2023/01/07 08:55:29;;;;;;;5.03;0.95;;;;;;;8.93;91.41;101045.66;5022426;28;20052;-79
2023/01/07 08:57:54;;;;;;;3.25;1.05;;;;;;;8.99;90.99;101049.47;5011399;28;20040;-79
2023/01/07 09:00:21;;;;;;;1.88;1.20;;;;;;;8.98;91.48;101043.44;5044993;28;20037;-78
2023/01/07 09:02:47;;;;;;;8.38;0.93;;;;;;;8.96;91.65;101041.00;5025759;28;20033;-79
2023/01/07 09:05:12;;;;;;;6.50;3.33;;;;;;;9.02;92.42;101044.81;5007367;28;20430;-79
2023/01/07 09:07:37;;;;;;;7.30;2.38;;;;;;;9.16;90.92;101049.53;5012026;28;20061;-78
2023/01/07 09:10:03;;;;;;;5.30;1.25;;;;;;;9.23;90.44;101042.03;5043159;28;20052;-78
2023/01/07 09:12:29;;;;;;;4.38;1.42;;;;;;;9.30;90.20;101030.16;5025653;28;20444;-79
2023/01/07 09:14:55;;;;;;;5.03;1.17;;;;;;;9.22;91.06;101035.22;5027313;28;20116;-79
2023/01/07 09:17:21;;;;;;;1.92;1.02;;;;;;;9.30;91.27;101037.91;5010664;28;20433;-79
2023/01/07 09:19:46;;;;;;;2.15;1.00;;;;;;;9.38;91.28;101024.28;5024560;28;20129;-78
2023/01/07 09:22:12;;;;;;;3.10;1.27;;;;;;;9.43;91.21;101027.25;5024654;28;20030;-79
2023/01/07 09:24:37;;;;;;;1.55;0.95;;;;;;;9.47;91.90;101025.19;5030992;28;20060;-79
2023/01/07 09:27:03;;;;;;;3.30;1.25;;;;;;;9.61;92.37;101019.53;5013849;28;20048;-79
2023/01/07 09:29:28;;;;;;;5.05;1.13;;;;;;;9.75;90.94;101016.44;5030061;28;20029;-79
2023/01/07 09:31:54;;;;;;;2.80;1.20;;;;;;;9.82;91.06;101016.69;5007503;28;20040;-79
2023/01/07 09:34:19;;;;;;;2.17;1.20;;;;;;;9.90;90.83;101031.50;5026763;28;20430;-78
2023/01/07 09:36:45;;;;;;;4.47;1.23;;;;;;;10.04;89.66;101012.88;5043313;28;20083;-79
2023/01/07 09:39:11;;;;;;;1.60;1.05;;;;;;;10.03;89.52;101007.84;5013171;28;20025;-78
2023/01/07 09:42:01;;;;;;;6.80;1.55;;;;;;;10.02;89.28;101009.63;5043668;28;20077;-79
2023/01/07 09:44:43;;;;;;;2.22;0.88;;;;;;;10.01;89.00;101012.38;5039013;28;20037;-79
2023/01/07 09:47:11;;;;;;;4.50;1.30;;;;;;;10.10;88.35;101014.06;5043083;28;20049;-79
2023/01/07 09:49:38;;;;;;;3.55;1.20;;;;;;;10.00;88.37;101010.72;5007449;28;20087;-78
2023/01/07 09:52:11;;;;;;;3.22;1.10;;;;;;;9.96;89.38;101006.78;5013110;28;20065;-78
2023/01/07 09:54:38;;;;;;;2.38;1.10;;;;;;;10.05;88.31;101013.69;5023925;28;20025;-78
2023/01/07 09:57:04;;;;;;;5.32;1.33;;;;;;;10.10;88.09;101007.09;5026353;28;20067;-78
2023/01/07 09:59:30;;;;;;;2.17;1.10;;;;;;;10.21;86.85;101006.06;5009388;28;20482;-78
2023/01/07 10:02:15;;;;;;;3.55;1.15;;;;;;;10.22;85.95;101004.28;5009103;28;20028;-78
2023/01/07 10:05:21;;;;;;;3.80;1.17;;;;;;;10.26;86.29;100996.06;5022518;28;20049;-78
2023/01/07 10:08:40;;;;;;;2.72;1.30;;;;;;;10.20;86.38;100991.47;5007170;28;20057;-79
2023/01/07 10:11:27;;;;;;;3.80;1.23;;;;;;;10.13;86.39;100991.28;4982108;28;20061;-78
2023/01/07 10:14:24;;;;;;;2.42;1.00;;;;;;;10.08;86.36;100982.31;5039714;28;21089;-79
2023/01/07 10:16:57;;;;;;;1.88;0.88;;;;;;;10.05;86.06;100978.22;5024635;28;20097;-78
2023/01/07 10:19:36;;;;;;;2.08;1.00;;;;;;;10.11;86.43;100971.63;5026901;28;20557;-78
2023/01/07 10:22:31;;;;;;;3.25;1.20;;;;;;;10.06;87.56;100971.28;5021774;28;20100;-78
2023/01/07 10:25:02;;;;;;;2.13;1.00;;;;;;;10.06;87.29;100974.69;5026003;28;20152;-79
2023/01/07 10:27:39;;;;;;;1.85;1.17;;;;;;;10.17;85.72;100960.69;5041569;28;20038;-79
2023/01/07 10:30:10;;;;;;;1.42;1.00;;;;;;;10.20;85.06;100952.59;5026582;28;20383;-79
2023/01/07 10:32:35;;;;;;;1.10;0.90;;;;;;;10.23;84.75;100948.91;5019685;28;20038;-80
2023/01/07 10:35:02;;;;;;;1.33;0.90;;;;;;;10.23;84.57;100943.75;5027220;28;20855;-79
2023/01/07 10:37:39;;;;;;;1.80;0.90;;;;;;;10.26;84.48;100928.69;5029731;28;20041;-78
2023/01/07 10:40:38;;;;;;;1.80;1.00;;;;;;;10.23;85.11;100926.41;5012072;28;20083;-79
2023/01/07 10:43:37;;;;;;;2.17;1.00;;;;;;;10.21;84.59;100923.16;5025341;28;20061;-79
2023/01/07 10:46:27;;;;;;;4.25;1.10;;;;;;;10.27;84.00;100919.94;5039591;28;20054;-79
2023/01/07 10:49:23;;;;;;;5.03;0.95;;;;;;;10.34;83.99;100907.25;5008763;28;20072;-78
2023/01/07 10:52:10;;;;;;;4.20;1.23;;;;;;;10.32;84.28;100901.38;5039676;28;20029;-79
2023/01/07 10:54:45;;;;;;;4.90;1.50;;;;;;;10.45;82.72;100900.97;5047508;28;20057;-78
2023/01/07 10:57:23;;;;;;;2.50;1.02;;;;;;;10.46;83.06;100892.25;5028776;28;20033;-79
2023/01/07 10:59:55;;;;;;;4.55;1.00;;;;;;;10.58;81.51;100883.22;5039910;28;20045;-79
2023/01/07 11:02:26;;;;;;;1.90;0.90;;;;;;;10.55;81.55;100880.13;5013467;28;20546;-79
2023/01/07 11:04:53;;;;;;;1.40;1.10;;;;;;;10.52;81.52;100876.06;5022194;28;20041;-79
2023/01/07 11:07:47;;;;;;;2.83;0.80;;;;;;;10.55;81.65;100869.75;5024527;28;20080;-79
2023/01/07 11:10:19;;;;;;;5.60;1.35;;;;;;;10.50;81.44;100860.66;5022013;28;20076;-78
2023/01/07 11:12:58;;;;;;;4.78;1.25;;;;;;;10.49;82.18;100846.09;5041093;28;20029;-79
2023/01/07 11:15:39;;;;;;;2.25;1.10;;;;;;;10.56;81.55;100841.09;5024763;28;20045;-79
2023/01/07 11:18:20;;;;;;;1.85;1.10;;;;;;;10.54;81.54;100827.47;5043811;28;20037;-79
2023/01/07 11:20:51;;;;;;;3.92;1.30;;;;;;;10.64;81.05;100824.75;5045081;28;20544;-79
2023/01/07 11:23:32;;;;;;;5.85;0.95;;;;;;;10.56;81.09;100820.34;5028528;28;20436;-79
2023/01/07 11:26:08;;;;;;;1.40;1.00;;;;;;;10.61;80.52;100818.09;5027471;28;20045;-79
2023/01/07 11:28:35;;;;;;;2.33;0.95;;;;;;;10.61;79.96;100810.31;5027981;28;20028;-78
2023/01/07 11:31:01;;;;;;;4.13;1.20;;;;;;;10.60;79.37;100810.47;5027885;28;20049;-79
2023/01/07 11:33:36;;;;;;;1.90;1.10;;;;;;;10.64;79.67;100806.59;5012650;28;20038;-79
2023/01/07 11:36:03;;;;;;;2.22;1.10;;;;;;;10.61;78.89;100786.19;5047207;28;20065;-79
2023/01/07 11:38:32;;;;;;;1.98;1.10;;;;;;;10.63;79.00;100786.84;5030963;28;20026;-79
2023/01/07 11:40:59;;;;;;;3.92;1.02;;;;;;;10.67;78.63;100782.97;5050301;28;20034;-78
2023/01/07 11:43:34;;;;;;;1.90;0.98;;;;;;;10.60;79.77;100779.34;5035815;28;20040;-80